sensor_id;sensor_type;location;lat;lon;timestamp;temperature;humidity
17726;DHT22;8983;53.156;17.960;2022-12-10T00:01:17;0.70;99.90
17726;DHT22;8983;53.156;17.960;2022-12-10T00:03:45;0.70;99.90
17726;DHT22;8983;53.156;17.960;2022-12-10T00:06:15;0.60;99.90
17726;DHT22;8983;53.156;17.960;2022-12-10T00:08:44;0.60;99.90
17726;DHT22;8983;53.156;17.960;2022-12-10T00:11:13;0.60;99.90
17726;DHT22;8983;53.156;17.960;2022-12-10T00:13:45;0.60;99.90
17726;DHT22;8983;53.156;17.960;2022-12-10T00:16:15;0.50;99.90
17726;DHT22;8983;53.156;17.960;2022-12-10T00:18:44;0.50;99.90
17726;DHT22;8983;53.156;17.960;2022-12-10T00:21:14;0.50;99.90
17726;DHT22;8983;53.156;17.960;2022-12-10T00:23:43;0.60;99.90
17726;DHT22;8983;53.156;17.960;2022-12-10T00:26:12;0.50;99.90
17726;DHT22;8983;53.156;17.960;2022-12-10T00:28:43;0.60;99.90
17726;DHT22;8983;53.156;17.960;2022-12-10T00:31:12;0.50;99.90
17726;DHT22;8983;53.156;17.960;2022-12-10T00:33:41;0.50;99.90
17726;DHT22;8983;53.156;17.960;2022-12-10T00:36:11;0.50;99.90
17726;DHT22;8983;53.156;17.960;2022-12-10T00:38:40;0.50;99.90
17726;DHT22;8983;53.156;17.960;2022-12-10T00:41:10;0.60;99.90
17726;DHT22;8983;53.156;17.960;2022-12-10T00:43:39;0.60;99.90
17726;DHT22;8983;53.156;17.960;2022-12-10T00:46:09;0.60;99.90
17726;DHT22;8983;53.156;17.960;2022-12-10T00:48:37;0.60;99.90
17726;DHT22;8983;53.156;17.960;2022-12-10T00:51:07;0.60;99.90
17726;DHT22;8983;53.156;17.960;2022-12-10T00:53:37;0.60;99.90
17726;DHT22;8983;53.156;17.960;2022-12-10T00:56:06;0.60;99.90
17726;DHT22;8983;53.156;17.960;2022-12-10T00:58:36;0.60;99.90
17726;DHT22;8983;53.156;17.960;2022-12-10T01:01:10;0.60;99.90
17726;DHT22;8983;53.156;17.960;2022-12-10T01:03:39;0.60;99.90
17726;DHT22;8983;53.156;17.960;2022-12-10T01:06:09;0.60;99.90
17726;DHT22;8983;53.156;17.960;2022-12-10T01:08:37;0.60;99.90
17726;DHT22;8983;53.156;17.960;2022-12-10T01:11:05;0.50;99.90
17726;DHT22;8983;53.156;17.960;2022-12-10T01:13:33;0.50;99.90
17726;DHT22;8983;53.156;17.960;2022-12-10T01:16:01;0.50;99.90
17726;DHT22;8983;53.156;17.960;2022-12-10T01:18:31;0.50;99.90
17726;DHT22;8983;53.156;17.960;2022-12-10T01:21:03;0.50;99.90
17726;DHT22;8983;53.156;17.960;2022-12-10T01:23:32;0.50;99.90
17726;DHT22;8983;53.156;17.960;2022-12-10T01:26:01;0.50;99.90
17726;DHT22;8983;53.156;17.960;2022-12-10T01:28:30;0.50;99.90
17726;DHT22;8983;53.156;17.960;2022-12-10T01:31:02;0.40;99.90
17726;DHT22;8983;53.156;17.960;2022-12-10T01:33:32;0.50;99.90
17726;DHT22;8983;53.156;17.960;2022-12-10T01:36:02;0.50;99.90
17726;DHT22;8983;53.156;17.960;2022-12-10T01:38:30;0.50;99.90
17726;DHT22;8983;53.156;17.960;2022-12-10T01:40:59;0.40;99.90
17726;DHT22;8983;53.156;17.960;2022-12-10T01:43:27;0.40;99.90
17726;DHT22;8983;53.156;17.960;2022-12-10T01:45:57;0.40;99.90
17726;DHT22;8983;53.156;17.960;2022-12-10T01:48:25;0.40;99.90
17726;DHT22;8983;53.156;17.960;2022-12-10T01:50:54;0.40;99.90
17726;DHT22;8983;53.156;17.960;2022-12-10T01:53:22;0.40;99.90
17726;DHT22;8983;53.156;17.960;2022-12-10T01:55:50;0.40;99.90
17726;DHT22;8983;53.156;17.960;2022-12-10T01:58:19;0.40;99.90
17726;DHT22;8983;53.156;17.960;2022-12-10T02:00:55;0.40;99.90
17726;DHT22;8983;53.156;17.960;2022-12-10T02:03:29;0.30;99.90
17726;DHT22;8983;53.156;17.960;2022-12-10T02:06:08;0.40;99.90
17726;DHT22;8983;53.156;17.960;2022-12-10T02:08:44;0.40;99.90
17726;DHT22;8983;53.156;17.960;2022-12-10T02:11:19;0.40;99.90
17726;DHT22;8983;53.156;17.960;2022-12-10T02:13:52;0.40;99.90
17726;DHT22;8983;53.156;17.960;2022-12-10T02:16:31;0.30;99.90
17726;DHT22;8983;53.156;17.960;2022-12-10T02:19:15;0.30;99.90
17726;DHT22;8983;53.156;17.960;2022-12-10T02:21:49;0.40;99.90
17726;DHT22;8983;53.156;17.960;2022-12-10T02:24:20;0.40;99.90
17726;DHT22;8983;53.156;17.960;2022-12-10T02:26:55;0.40;99.90
17726;DHT22;8983;53.156;17.960;2022-12-10T02:29:26;0.40;99.90
17726;DHT22;8983;53.156;17.960;2022-12-10T02:31:59;0.40;99.90
17726;DHT22;8983;53.156;17.960;2022-12-10T02:34:32;0.40;99.90
17726;DHT22;8983;53.156;17.960;2022-12-10T02:37:12;0.40;99.90
17726;DHT22;8983;53.156;17.960;2022-12-10T02:39:44;0.40;99.90
17726;DHT22;8983;53.156;17.960;2022-12-10T02:42:15;0.40;99.90
17726;DHT22;8983;53.156;17.960;2022-12-10T02:44:47;0.30;99.90
17726;DHT22;8983;53.156;17.960;2022-12-10T02:47:17;0.30;99.90
17726;DHT22;8983;53.156;17.960;2022-12-10T02:49:47;0.30;99.90
17726;DHT22;8983;53.156;17.960;2022-12-10T02:52:18;0.30;99.90
17726;DHT22;8983;53.156;17.960;2022-12-10T02:54:48;0.30;99.90
17726;DHT22;8983;53.156;17.960;2022-12-10T02:57:29;0.30;99.90
17726;DHT22;8983;53.156;17.960;2022-12-10T03:00:08;0.30;99.90
17726;DHT22;8983;53.156;17.960;2022-12-10T03:02:52;0.30;99.90
17726;DHT22;8983;53.156;17.960;2022-12-10T03:05:27;0.30;99.90
17726;DHT22;8983;53.156;17.960;2022-12-10T03:08:02;0.30;99.90
17726;DHT22;8983;53.156;17.960;2022-12-10T03:10:34;0.30;99.90
17726;DHT22;8983;53.156;17.960;2022-12-10T03:13:06;0.30;99.90
17726;DHT22;8983;53.156;17.960;2022-12-10T03:15:39;0.30;99.90
17726;DHT22;8983;53.156;17.960;2022-12-10T03:18:09;0.40;99.90
17726;DHT22;8983;53.156;17.960;2022-12-10T03:20:42;0.40;99.90
17726;DHT22;8983;53.156;17.960;2022-12-10T03:23:15;0.40;99.90
17726;DHT22;8983;53.156;17.960;2022-12-10T03:25:45;0.40;99.90
17726;DHT22;8983;53.156;17.960;2022-12-10T03:28:14;0.40;99.90
17726;DHT22;8983;53.156;17.960;2022-12-10T03:30:46;0.40;99.90
17726;DHT22;8983;53.156;17.960;2022-12-10T03:33:15;0.40;99.90
17726;DHT22;8983;53.156;17.960;2022-12-10T03:35:43;0.40;99.90
17726;DHT22;8983;53.156;17.960;2022-12-10T03:38:12;0.40;99.90
17726;DHT22;8983;53.156;17.960;2022-12-10T03:40:42;0.40;99.90
17726;DHT22;8983;53.156;17.960;2022-12-10T03:43:12;0.40;99.90
17726;DHT22;8983;53.156;17.960;2022-12-10T03:45:40;0.50;99.90
17726;DHT22;8983;53.156;17.960;2022-12-10T03:48:09;0.50;99.90
17726;DHT22;8983;53.156;17.960;2022-12-10T03:50:37;0.40;99.90
17726;DHT22;8983;53.156;17.960;2022-12-10T03:53:05;0.40;99.90
17726;DHT22;8983;53.156;17.960;2022-12-10T03:55:33;0.40;99.90
17726;DHT22;8983;53.156;17.960;2022-12-10T03:58:01;0.40;99.90
17726;DHT22;8983;53.156;17.960;2022-12-10T04:00:29;0.40;99.90
17726;DHT22;8983;53.156;17.960;2022-12-10T04:02:57;0.40;99.90
17726;DHT22;8983;53.156;17.960;2022-12-10T04:05:26;0.40;99.90
17726;DHT22;8983;53.156;17.960;2022-12-10T04:07:54;0.40;99.90
17726;DHT22;8983;53.156;17.960;2022-12-10T04:10:22;0.40;99.90
17726;DHT22;8983;53.156;17.960;2022-12-10T04:12:50;0.40;99.90
17726;DHT22;8983;53.156;17.960;2022-12-10T04:15:39;0.50;99.90
17726;DHT22;8983;53.156;17.960;2022-12-10T04:18:24;0.40;99.90
17726;DHT22;8983;53.156;17.960;2022-12-10T04:20:53;0.40;99.90
17726;DHT22;8983;53.156;17.960;2022-12-10T04:23:39;0.40;99.90
17726;DHT22;8983;53.156;17.960;2022-12-10T04:26:24;0.40;99.90
17726;DHT22;8983;53.156;17.960;2022-12-10T04:29:10;0.40;99.90
17726;DHT22;8983;53.156;17.960;2022-12-10T04:31:38;0.40;99.90
17726;DHT22;8983;53.156;17.960;2022-12-10T04:34:06;0.40;99.90
17726;DHT22;8983;53.156;17.960;2022-12-10T04:36:35;0.40;99.90
17726;DHT22;8983;53.156;17.960;2022-12-10T04:39:03;0.40;99.90
17726;DHT22;8983;53.156;17.960;2022-12-10T04:41:31;0.40;99.90
17726;DHT22;8983;53.156;17.960;2022-12-10T04:43:59;0.40;99.90
17726;DHT22;8983;53.156;17.960;2022-12-10T04:46:28;0.40;99.90
17726;DHT22;8983;53.156;17.960;2022-12-10T04:48:56;0.40;99.90
17726;DHT22;8983;53.156;17.960;2022-12-10T04:51:24;0.40;99.90
17726;DHT22;8983;53.156;17.960;2022-12-10T04:53:53;0.40;99.90
17726;DHT22;8983;53.156;17.960;2022-12-10T04:56:21;0.40;99.90
17726;DHT22;8983;53.156;17.960;2022-12-10T04:58:49;0.40;99.90
17726;DHT22;8983;53.156;17.960;2022-12-10T05:01:17;0.40;99.90
17726;DHT22;8983;53.156;17.960;2022-12-10T05:03:46;0.50;99.90
17726;DHT22;8983;53.156;17.960;2022-12-10T05:06:15;0.50;99.90
17726;DHT22;8983;53.156;17.960;2022-12-10T05:08:44;0.50;99.90
17726;DHT22;8983;53.156;17.960;2022-12-10T05:11:15;0.50;99.90
17726;DHT22;8983;53.156;17.960;2022-12-10T05:13:43;0.40;99.90
17726;DHT22;8983;53.156;17.960;2022-12-10T05:16:13;0.40;99.90
17726;DHT22;8983;53.156;17.960;2022-12-10T05:18:41;0.40;99.90
17726;DHT22;8983;53.156;17.960;2022-12-10T05:21:11;0.40;99.90
17726;DHT22;8983;53.156;17.960;2022-12-10T05:23:42;0.40;99.90
17726;DHT22;8983;53.156;17.960;2022-12-10T05:26:10;0.50;99.90
17726;DHT22;8983;53.156;17.960;2022-12-10T05:28:41;0.50;99.90
17726;DHT22;8983;53.156;17.960;2022-12-10T05:31:12;0.40;99.90
17726;DHT22;8983;53.156;17.960;2022-12-10T05:33:41;0.40;99.90
17726;DHT22;8983;53.156;17.960;2022-12-10T05:36:10;0.40;99.90
17726;DHT22;8983;53.156;17.960;2022-12-10T05:38:39;0.40;99.90
17726;DHT22;8983;53.156;17.960;2022-12-10T05:41:09;0.40;99.90
17726;DHT22;8983;53.156;17.960;2022-12-10T05:43:40;0.40;99.90
17726;DHT22;8983;53.156;17.960;2022-12-10T05:46:11;0.40;99.90
17726;DHT22;8983;53.156;17.960;2022-12-10T05:48:40;0.40;99.90
17726;DHT22;8983;53.156;17.960;2022-12-10T05:51:09;0.40;99.90
17726;DHT22;8983;53.156;17.960;2022-12-10T05:53:38;0.40;99.90
17726;DHT22;8983;53.156;17.960;2022-12-10T05:56:09;0.40;99.90
17726;DHT22;8983;53.156;17.960;2022-12-10T05:58:37;0.50;99.90
17726;DHT22;8983;53.156;17.960;2022-12-10T06:01:08;0.50;99.90
17726;DHT22;8983;53.156;17.960;2022-12-10T06:03:37;0.40;99.90
17726;DHT22;8983;53.156;17.960;2022-12-10T06:06:05;0.40;99.90
17726;DHT22;8983;53.156;17.960;2022-12-10T06:08:34;0.40;99.90
17726;DHT22;8983;53.156;17.960;2022-12-10T06:11:03;0.40;99.90
17726;DHT22;8983;53.156;17.960;2022-12-10T06:13:31;0.40;99.90
17726;DHT22;8983;53.156;17.960;2022-12-10T06:15:59;0.40;99.90
17726;DHT22;8983;53.156;17.960;2022-12-10T06:18:32;0.40;99.90
17726;DHT22;8983;53.156;17.960;2022-12-10T06:21:03;0.40;99.90
17726;DHT22;8983;53.156;17.960;2022-12-10T06:23:31;0.40;99.90
17726;DHT22;8983;53.156;17.960;2022-12-10T06:26:03;0.40;99.90
17726;DHT22;8983;53.156;17.960;2022-12-10T06:28:31;0.40;99.90
17726;DHT22;8983;53.156;17.960;2022-12-10T06:30:59;0.40;99.90
17726;DHT22;8983;53.156;17.960;2022-12-10T06:33:27;0.40;99.90
17726;DHT22;8983;53.156;17.960;2022-12-10T06:35:57;0.40;99.90
17726;DHT22;8983;53.156;17.960;2022-12-10T06:38:25;0.40;99.90
17726;DHT22;8983;53.156;17.960;2022-12-10T06:40:53;0.40;99.90
17726;DHT22;8983;53.156;17.960;2022-12-10T06:43:21;0.40;99.90
17726;DHT22;8983;53.156;17.960;2022-12-10T06:45:49;0.40;99.90
17726;DHT22;8983;53.156;17.960;2022-12-10T06:48:16;0.40;99.90
17726;DHT22;8983;53.156;17.960;2022-12-10T06:50:44;0.40;99.90
17726;DHT22;8983;53.156;17.960;2022-12-10T06:53:14;0.40;99.90
17726;DHT22;8983;53.156;17.960;2022-12-10T06:55:42;0.40;99.90
17726;DHT22;8983;53.156;17.960;2022-12-10T06:58:09;0.40;99.90
17726;DHT22;8983;53.156;17.960;2022-12-10T07:00:37;0.40;99.90
17726;DHT22;8983;53.156;17.960;2022-12-10T07:03:05;0.40;99.90
17726;DHT22;8983;53.156;17.960;2022-12-10T07:05:34;0.40;99.90
17726;DHT22;8983;53.156;17.960;2022-12-10T07:08:01;0.40;99.90
17726;DHT22;8983;53.156;17.960;2022-12-10T07:10:31;0.40;99.90
17726;DHT22;8983;53.156;17.960;2022-12-10T07:12:59;0.40;99.90
17726;DHT22;8983;53.156;17.960;2022-12-10T07:15:27;0.40;99.90
17726;DHT22;8983;53.156;17.960;2022-12-10T07:17:55;0.40;99.90
17726;DHT22;8983;53.156;17.960;2022-12-10T07:20:22;0.40;99.90
17726;DHT22;8983;53.156;17.960;2022-12-10T07:22:50;0.50;99.90
17726;DHT22;8983;53.156;17.960;2022-12-10T07:25:18;0.50;99.90
17726;DHT22;8983;53.156;17.960;2022-12-10T07:27:47;0.50;99.90
17726;DHT22;8983;53.156;17.960;2022-12-10T07:30:21;0.50;99.90
17726;DHT22;8983;53.156;17.960;2022-12-10T07:32:49;0.50;99.90
17726;DHT22;8983;53.156;17.960;2022-12-10T07:35:17;0.50;99.90
17726;DHT22;8983;53.156;17.960;2022-12-10T07:37:45;0.50;99.90
17726;DHT22;8983;53.156;17.960;2022-12-10T07:40:13;0.50;99.90
17726;DHT22;8983;53.156;17.960;2022-12-10T07:42:41;0.50;99.90
17726;DHT22;8983;53.156;17.960;2022-12-10T07:45:10;0.50;99.90
17726;DHT22;8983;53.156;17.960;2022-12-10T07:47:38;0.50;99.90
17726;DHT22;8983;53.156;17.960;2022-12-10T07:50:07;0.50;99.90
17726;DHT22;8983;53.156;17.960;2022-12-10T07:52:35;0.50;99.90
17726;DHT22;8983;53.156;17.960;2022-12-10T07:55:04;0.50;99.90
17726;DHT22;8983;53.156;17.960;2022-12-10T07:57:32;0.50;99.90
17726;DHT22;8983;53.156;17.960;2022-12-10T08:00:00;0.50;99.90
17726;DHT22;8983;53.156;17.960;2022-12-10T08:02:29;0.40;99.90
17726;DHT22;8983;53.156;17.960;2022-12-10T08:04:57;0.50;99.90
17726;DHT22;8983;53.156;17.960;2022-12-10T08:07:25;0.50;99.90
17726;DHT22;8983;53.156;17.960;2022-12-10T08:09:53;0.50;99.90
17726;DHT22;8983;53.156;17.960;2022-12-10T08:12:21;0.50;99.90
17726;DHT22;8983;53.156;17.960;2022-12-10T08:14:49;0.50;99.90
17726;DHT22;8983;53.156;17.960;2022-12-10T08:17:17;0.50;99.90
17726;DHT22;8983;53.156;17.960;2022-12-10T08:19:46;0.50;99.90
17726;DHT22;8983;53.156;17.960;2022-12-10T08:22:14;0.60;99.90
17726;DHT22;8983;53.156;17.960;2022-12-10T08:24:42;0.60;99.90
17726;DHT22;8983;53.156;17.960;2022-12-10T08:27:11;0.60;99.90
17726;DHT22;8983;53.156;17.960;2022-12-10T08:29:38;0.60;99.90
17726;DHT22;8983;53.156;17.960;2022-12-10T08:32:06;0.60;99.90
17726;DHT22;8983;53.156;17.960;2022-12-10T08:34:34;0.60;99.90
17726;DHT22;8983;53.156;17.960;2022-12-10T08:37:04;0.60;99.90
17726;DHT22;8983;53.156;17.960;2022-12-10T08:39:38;0.60;99.90
17726;DHT22;8983;53.156;17.960;2022-12-10T08:42:06;0.60;99.90
17726;DHT22;8983;53.156;17.960;2022-12-10T08:44:34;0.60;99.90
17726;DHT22;8983;53.156;17.960;2022-12-10T08:47:02;0.60;99.90
17726;DHT22;8983;53.156;17.960;2022-12-10T08:49:30;0.60;99.90
17726;DHT22;8983;53.156;17.960;2022-12-10T08:51:58;0.60;99.90
17726;DHT22;8983;53.156;17.960;2022-12-10T08:54:28;0.70;99.90
17726;DHT22;8983;53.156;17.960;2022-12-10T08:56:55;0.70;99.90
17726;DHT22;8983;53.156;17.960;2022-12-10T08:59:23;0.70;99.90
17726;DHT22;8983;53.156;17.960;2022-12-10T09:01:51;0.70;99.90
17726;DHT22;8983;53.156;17.960;2022-12-10T09:04:23;0.70;99.90
17726;DHT22;8983;53.156;17.960;2022-12-10T09:06:51;0.80;99.90
17726;DHT22;8983;53.156;17.960;2022-12-10T09:09:19;0.80;99.90
17726;DHT22;8983;53.156;17.960;2022-12-10T09:11:49;0.80;99.90
17726;DHT22;8983;53.156;17.960;2022-12-10T09:14:17;0.80;99.90
17726;DHT22;8983;53.156;17.960;2022-12-10T09:16:44;0.70;99.90
17726;DHT22;8983;53.156;17.960;2022-12-10T09:19:12;0.80;99.90
17726;DHT22;8983;53.156;17.960;2022-12-10T09:21:46;0.80;99.90
17726;DHT22;8983;53.156;17.960;2022-12-10T09:24:14;0.80;99.90
17726;DHT22;8983;53.156;17.960;2022-12-10T09:26:42;0.80;99.90
17726;DHT22;8983;53.156;17.960;2022-12-10T09:29:11;0.80;99.90
17726;DHT22;8983;53.156;17.960;2022-12-10T09:31:40;0.80;99.90
17726;DHT22;8983;53.156;17.960;2022-12-10T09:34:08;0.80;99.90
17726;DHT22;8983;53.156;17.960;2022-12-10T09:36:36;0.80;99.90
17726;DHT22;8983;53.156;17.960;2022-12-10T09:39:04;0.80;99.90
17726;DHT22;8983;53.156;17.960;2022-12-10T09:41:56;0.90;99.90
17726;DHT22;8983;53.156;17.960;2022-12-10T09:44:41;0.90;99.90
17726;DHT22;8983;53.156;17.960;2022-12-10T09:47:11;0.90;99.90
17726;DHT22;8983;53.156;17.960;2022-12-10T09:49:49;0.90;99.90
17726;DHT22;8983;53.156;17.960;2022-12-10T09:52:22;1.00;99.90
17726;DHT22;8983;53.156;17.960;2022-12-10T09:54:54;1.00;99.90
17726;DHT22;8983;53.156;17.960;2022-12-10T09:57:27;1.00;99.90
17726;DHT22;8983;53.156;17.960;2022-12-10T10:00:02;1.00;99.90
17726;DHT22;8983;53.156;17.960;2022-12-10T10:02:31;1.00;99.90
17726;DHT22;8983;53.156;17.960;2022-12-10T10:05:09;1.00;99.90
17726;DHT22;8983;53.156;17.960;2022-12-10T10:07:43;1.00;99.90
17726;DHT22;8983;53.156;17.960;2022-12-10T10:10:21;1.00;99.90
17726;DHT22;8983;53.156;17.960;2022-12-10T10:12:52;1.10;99.90
17726;DHT22;8983;53.156;17.960;2022-12-10T10:15:28;1.10;99.90
17726;DHT22;8983;53.156;17.960;2022-12-10T10:18:02;1.10;99.90
17726;DHT22;8983;53.156;17.960;2022-12-10T10:20:32;1.00;99.90
17726;DHT22;8983;53.156;17.960;2022-12-10T10:23:00;1.00;99.90
17726;DHT22;8983;53.156;17.960;2022-12-10T10:25:28;1.00;99.90
17726;DHT22;8983;53.156;17.960;2022-12-10T10:27:56;1.00;99.90
17726;DHT22;8983;53.156;17.960;2022-12-10T10:30:25;1.00;99.90
17726;DHT22;8983;53.156;17.960;2022-12-10T10:32:55;1.00;99.90
17726;DHT22;8983;53.156;17.960;2022-12-10T10:35:26;1.00;99.90
17726;DHT22;8983;53.156;17.960;2022-12-10T10:37:59;1.00;99.90
17726;DHT22;8983;53.156;17.960;2022-12-10T10:40:32;1.00;99.90
17726;DHT22;8983;53.156;17.960;2022-12-10T10:43:00;1.00;99.90
17726;DHT22;8983;53.156;17.960;2022-12-10T10:45:37;1.00;99.90
17726;DHT22;8983;53.156;17.960;2022-12-10T10:48:10;1.00;99.90
17726;DHT22;8983;53.156;17.960;2022-12-10T10:50:41;1.00;99.90
17726;DHT22;8983;53.156;17.960;2022-12-10T10:53:30;1.00;99.90
17726;DHT22;8983;53.156;17.960;2022-12-10T10:56:05;1.00;99.90
17726;DHT22;8983;53.156;17.960;2022-12-10T10:58:35;1.00;99.90
17726;DHT22;8983;53.156;17.960;2022-12-10T11:01:06;0.90;99.90
17726;DHT22;8983;53.156;17.960;2022-12-10T11:03:36;0.90;99.90
17726;DHT22;8983;53.156;17.960;2022-12-10T11:06:13;0.90;99.90
17726;DHT22;8983;53.156;17.960;2022-12-10T11:08:43;1.00;99.90
17726;DHT22;8983;53.156;17.960;2022-12-10T11:11:17;0.90;99.90
17726;DHT22;8983;53.156;17.960;2022-12-10T11:13:46;0.90;99.90
17726;DHT22;8983;53.156;17.960;2022-12-10T11:16:21;1.00;99.90
17726;DHT22;8983;53.156;17.960;2022-12-10T11:18:55;1.00;99.90
17726;DHT22;8983;53.156;17.960;2022-12-10T11:21:24;1.00;99.90
17726;DHT22;8983;53.156;17.960;2022-12-10T11:23:53;1.00;99.90
17726;DHT22;8983;53.156;17.960;2022-12-10T11:26:44;1.00;99.90
17726;DHT22;8983;53.156;17.960;2022-12-10T11:29:37;1.00;99.90
17726;DHT22;8983;53.156;17.960;2022-12-10T11:32:26;1.00;99.90
17726;DHT22;8983;53.156;17.960;2022-12-10T11:35:05;1.00;99.90
17726;DHT22;8983;53.156;17.960;2022-12-10T11:37:39;1.00;99.90
17726;DHT22;8983;53.156;17.960;2022-12-10T11:40:24;1.00;99.90
17726;DHT22;8983;53.156;17.960;2022-12-10T11:46:05;0.90;99.90
17726;DHT22;8983;53.156;17.960;2022-12-10T11:48:48;0.90;99.90
17726;DHT22;8983;53.156;17.960;2022-12-10T11:51:24;0.90;99.90
17726;DHT22;8983;53.156;17.960;2022-12-10T11:54:21;0.90;99.90
17726;DHT22;8983;53.156;17.960;2022-12-10T11:56:59;0.90;99.90
17726;DHT22;8983;53.156;17.960;2022-12-10T11:59:36;0.90;99.90
17726;DHT22;8983;53.156;17.960;2022-12-10T12:02:47;0.90;99.90
17726;DHT22;8983;53.156;17.960;2022-12-10T12:05:29;0.90;99.90
17726;DHT22;8983;53.156;17.960;2022-12-10T12:08:05;0.90;99.90
17726;DHT22;8983;53.156;17.960;2022-12-10T12:10:57;0.90;99.90
17726;DHT22;8983;53.156;17.960;2022-12-10T12:13:29;0.80;99.90
17726;DHT22;8983;53.156;17.960;2022-12-10T12:16:04;0.80;99.90
17726;DHT22;8983;53.156;17.960;2022-12-10T12:18:42;0.80;99.90
17726;DHT22;8983;53.156;17.960;2022-12-10T12:21:14;0.90;99.90
17726;DHT22;8983;53.156;17.960;2022-12-10T12:23:49;0.90;99.90
17726;DHT22;8983;53.156;17.960;2022-12-10T12:26:23;0.90;99.90
17726;DHT22;8983;53.156;17.960;2022-12-10T12:28:55;0.90;99.90
17726;DHT22;8983;53.156;17.960;2022-12-10T12:31:30;0.90;99.90
17726;DHT22;8983;53.156;17.960;2022-12-10T12:34:02;0.90;99.90
17726;DHT22;8983;53.156;17.960;2022-12-10T12:36:34;0.90;99.90
17726;DHT22;8983;53.156;17.960;2022-12-10T12:39:07;1.00;99.90
17726;DHT22;8983;53.156;17.960;2022-12-10T12:41:43;0.90;99.90
17726;DHT22;8983;53.156;17.960;2022-12-10T12:44:17;0.90;99.90
17726;DHT22;8983;53.156;17.960;2022-12-10T12:46:48;0.80;99.90
17726;DHT22;8983;53.156;17.960;2022-12-10T12:49:21;0.80;99.90
17726;DHT22;8983;53.156;17.960;2022-12-10T12:51:55;0.80;99.90
17726;DHT22;8983;53.156;17.960;2022-12-10T12:54:26;0.80;99.90
17726;DHT22;8983;53.156;17.960;2022-12-10T12:56:59;0.80;99.90
17726;DHT22;8983;53.156;17.960;2022-12-10T12:59:39;1.50;99.90
17726;DHT22;8983;53.156;17.960;2022-12-10T13:02:20;0.40;99.90
17726;DHT22;8983;53.156;17.960;2022-12-10T13:04:51;0.80;99.90
17726;DHT22;8983;53.156;17.960;2022-12-10T13:07:32;1.00;99.90
17726;DHT22;8983;53.156;17.960;2022-12-10T13:10:23;0.60;99.90
17726;DHT22;8983;53.156;17.960;2022-12-10T13:13:07;0.60;99.90
17726;DHT22;8983;53.156;17.960;2022-12-10T13:15:36;0.40;99.90
17726;DHT22;8983;53.156;17.960;2022-12-10T13:18:19;0.60;99.90
17726;DHT22;8983;53.156;17.960;2022-12-10T13:20:49;0.70;99.90
17726;DHT22;8983;53.156;17.960;2022-12-10T13:23:46;0.70;99.90
17726;DHT22;8983;53.156;17.960;2022-12-10T13:26:24;0.40;99.90
17726;DHT22;8983;53.156;17.960;2022-12-10T13:28:54;0.80;99.90
17726;DHT22;8983;53.156;17.960;2022-12-10T13:31:34;1.00;99.90
17726;DHT22;8983;53.156;17.960;2022-12-10T13:34:23;0.80;99.90
17726;DHT22;8983;53.156;17.960;2022-12-10T13:37:14;0.90;99.90
17726;DHT22;8983;53.156;17.960;2022-12-10T13:39:52;0.30;99.90
17726;DHT22;8983;53.156;17.960;2022-12-10T13:42:32;0.50;99.90
17726;DHT22;8983;53.156;17.960;2022-12-10T13:45:34;0.90;99.90
17726;DHT22;8983;53.156;17.960;2022-12-10T13:48:31;0.70;99.90
17726;DHT22;8983;53.156;17.960;2022-12-10T13:51:18;0.60;99.90
17726;DHT22;8983;53.156;17.960;2022-12-10T13:54:00;0.70;99.90
17726;DHT22;8983;53.156;17.960;2022-12-10T13:56:36;0.80;99.90
17726;DHT22;8983;53.156;17.960;2022-12-10T13:59:16;0.90;99.90
17726;DHT22;8983;53.156;17.960;2022-12-10T14:01:52;0.40;99.90
17726;DHT22;8983;53.156;17.960;2022-12-10T14:04:36;0.70;99.90
17726;DHT22;8983;53.156;17.960;2022-12-10T14:09:40;0.70;99.90
17726;DHT22;8983;53.156;17.960;2022-12-10T14:12:15;0.30;99.90
17726;DHT22;8983;53.156;17.960;2022-12-10T14:14:46;0.70;99.90
17726;DHT22;8983;53.156;17.960;2022-12-10T14:17:18;0.90;99.90
17726;DHT22;8983;53.156;17.960;2022-12-10T14:19:47;0.70;99.90
17726;DHT22;8983;53.156;17.960;2022-12-10T14:22:20;0.70;99.90
17726;DHT22;8983;53.156;17.960;2022-12-10T14:24:51;0.70;99.90
17726;DHT22;8983;53.156;17.960;2022-12-10T14:27:24;0.70;99.90
17726;DHT22;8983;53.156;17.960;2022-12-10T14:29:57;0.70;99.90
17726;DHT22;8983;53.156;17.960;2022-12-10T14:32:29;0.70;99.90
17726;DHT22;8983;53.156;17.960;2022-12-10T14:35:01;0.70;99.90
17726;DHT22;8983;53.156;17.960;2022-12-10T14:37:31;0.90;99.90
17726;DHT22;8983;53.156;17.960;2022-12-10T14:40:01;0.60;99.90
17726;DHT22;8983;53.156;17.960;2022-12-10T14:42:33;0.70;99.90
17726;DHT22;8983;53.156;17.960;2022-12-10T14:45:03;0.70;99.90
17726;DHT22;8983;53.156;17.960;2022-12-10T14:47:35;0.50;99.90
17726;DHT22;8983;53.156;17.960;2022-12-10T14:50:06;0.90;99.90
17726;DHT22;8983;53.156;17.960;2022-12-10T14:52:40;0.70;99.90
17726;DHT22;8983;53.156;17.960;2022-12-10T14:55:12;0.60;99.90
17726;DHT22;8983;53.156;17.960;2022-12-10T14:57:46;0.60;99.90
17726;DHT22;8983;53.156;17.960;2022-12-10T15:00:17;0.60;99.90
17726;DHT22;8983;53.156;17.960;2022-12-10T15:02:48;0.60;99.90
17726;DHT22;8983;53.156;17.960;2022-12-10T15:05:19;0.60;99.90
17726;DHT22;8983;53.156;17.960;2022-12-10T15:07:52;0.60;99.90
17726;DHT22;8983;53.156;17.960;2022-12-10T15:10:24;0.40;99.90
17726;DHT22;8983;53.156;17.960;2022-12-10T15:12:54;0.50;99.90
17726;DHT22;8983;53.156;17.960;2022-12-10T15:15:27;0.20;99.90
17726;DHT22;8983;53.156;17.960;2022-12-10T15:17:59;0.20;99.90
17726;DHT22;8983;53.156;17.960;2022-12-10T15:20:30;0.40;99.90
17726;DHT22;8983;53.156;17.960;2022-12-10T15:23:11;0.50;99.90
17726;DHT22;8983;53.156;17.960;2022-12-10T15:25:45;0.50;99.90
17726;DHT22;8983;53.156;17.960;2022-12-10T15:28:23;0.60;99.90
17726;DHT22;8983;53.156;17.960;2022-12-10T15:30:54;0.60;99.90
17726;DHT22;8983;53.156;17.960;2022-12-10T15:33:30;0.60;99.90
17726;DHT22;8983;53.156;17.960;2022-12-10T15:35:59;0.40;99.90
17726;DHT22;8983;53.156;17.960;2022-12-10T15:38:28;0.50;99.90
17726;DHT22;8983;53.156;17.960;2022-12-10T15:41:19;0.50;99.90
17726;DHT22;8983;53.156;17.960;2022-12-10T15:43:58;0.50;99.90
17726;DHT22;8983;53.156;17.960;2022-12-10T15:46:28;0.50;99.90
17726;DHT22;8983;53.156;17.960;2022-12-10T15:48:56;0.50;99.90
17726;DHT22;8983;53.156;17.960;2022-12-10T15:51:24;0.50;99.90
17726;DHT22;8983;53.156;17.960;2022-12-10T15:53:52;0.50;99.90
17726;DHT22;8983;53.156;17.960;2022-12-10T15:56:20;0.50;99.90
17726;DHT22;8983;53.156;17.960;2022-12-10T15:58:48;0.50;99.90
17726;DHT22;8983;53.156;17.960;2022-12-10T16:01:17;0.50;99.90
17726;DHT22;8983;53.156;17.960;2022-12-10T16:03:45;0.40;99.90
17726;DHT22;8983;53.156;17.960;2022-12-10T16:06:13;0.40;99.90
17726;DHT22;8983;53.156;17.960;2022-12-10T16:08:45;0.70;99.90
17726;DHT22;8983;53.156;17.960;2022-12-10T16:11:16;0.40;99.90
17726;DHT22;8983;53.156;17.960;2022-12-10T16:13:48;0.40;99.90
17726;DHT22;8983;53.156;17.960;2022-12-10T16:16:18;0.50;99.90
17726;DHT22;8983;53.156;17.960;2022-12-10T16:18:46;0.50;99.90
17726;DHT22;8983;53.156;17.960;2022-12-10T16:21:14;0.50;99.90